Anthony, West Virginia
Current Conditions -  °F | °C
As of 3:15 AM on Monday 26 Jan 2015 (Local Time) from KLWB Reporting Station
Unknown Precip Unknown Precip  
Wind Chill: 31°   Ceiling: 2800
Heat Index: 36°   Visibility: 7mi
Dew Point: 33°   Wind: 7mph
Humidity: 89%   Direction: 20°NNE
Pressure: 29.65"   Gusts: NA
Location:  38.0307°N, 80.4756°W
Report Text: KLWB 260815Z AUTO 02006KT 7SM UP SCT020 BKN028 OVC110 02/01 A2965 RMK AO2 T00240008
Loading
Personal Weather Stations






























Interactive Weather Map New forecast layout! Learn more

10-Day Weather Forecast

Advertisements
Track Severe Weather on mobile